createdAt,value
2019-03-19T00:02:26.220Z,1.60
2019-03-19T00:04:54.079Z,2.03
2019-03-19T00:07:21.944Z,1.00
2019-03-19T00:09:49.883Z,1.33
2019-03-19T00:12:18.040Z,1.23
2019-03-19T00:14:46.094Z,3.03
2019-03-19T00:17:14.042Z,1.60
2019-03-19T00:19:41.896Z,3.20
2019-03-19T00:22:09.953Z,2.93
2019-03-19T00:24:37.829Z,2.17
2019-03-19T00:27:05.787Z,1.10
2019-03-19T00:29:33.672Z,1.13
2019-03-19T00:32:01.596Z,1.40
2019-03-19T00:34:29.459Z,1.17
2019-03-19T00:36:57.506Z,2.70
2019-03-19T00:39:25.613Z,1.23
2019-03-19T00:41:53.648Z,1.47
2019-03-19T00:44:21.523Z,1.80
2019-03-19T00:46:49.477Z,1.63
2019-03-19T00:49:17.536Z,1.20
2019-03-19T00:51:45.571Z,1.50
2019-03-19T00:54:13.415Z,2.60
2019-03-19T00:56:41.160Z,1.40
2019-03-19T00:59:09.208Z,1.53
2019-03-19T01:01:38.850Z,2.13
2019-03-19T01:04:07.004Z,3.97
2019-03-19T01:06:34.988Z,3.80
2019-03-19T01:09:05.070Z,3.30
2019-03-19T01:11:32.917Z,3.57
2019-03-19T01:14:00.979Z,3.40
2019-03-19T01:16:28.911Z,2.97
2019-03-19T01:18:56.771Z,3.47
2019-03-19T01:21:24.712Z,2.47
2019-03-19T01:23:52.544Z,2.63
2019-03-19T01:26:20.383Z,3.33
2019-03-19T01:28:48.235Z,4.13
2019-03-19T01:31:16.324Z,5.07
2019-03-19T01:33:44.367Z,3.70
2019-03-19T01:36:12.424Z,4.73
2019-03-19T01:38:40.467Z,4.20
2019-03-19T01:41:08.536Z,4.03
2019-03-19T01:43:36.655Z,3.47
2019-03-19T01:46:04.705Z,3.03
2019-03-19T01:48:32.759Z,3.87
2019-03-19T01:51:00.800Z,4.07
2019-03-19T01:53:28.639Z,2.63
2019-03-19T01:56:04.820Z,4.03
2019-03-19T01:58:26.336Z,3.27
2019-03-19T02:00:54.404Z,3.30
2019-03-19T02:03:22.444Z,2.87
2019-03-19T02:05:50.198Z,3.70
2019-03-19T02:08:18.027Z,4.57
2019-03-19T02:10:45.887Z,2.30
2019-03-19T02:13:13.840Z,1.93
2019-03-19T02:15:41.880Z,1.60
2019-03-19T02:18:09.822Z,1.67
2019-03-19T02:20:38.136Z,3.33
2019-03-19T02:23:06.114Z,3.67
2019-03-19T02:25:34.175Z,4.07
2019-03-19T02:28:02.027Z,2.10
2019-03-19T02:30:29.984Z,2.00
2019-03-19T02:32:58.016Z,2.27
2019-03-19T02:35:26.185Z,2.23
2019-03-19T02:37:54.239Z,1.30
2019-03-19T02:40:22.293Z,2.00
2019-03-19T02:42:50.350Z,1.50
2019-03-19T02:45:18.381Z,2.80
2019-03-19T02:47:46.235Z,3.23
2019-03-19T02:50:14.419Z,2.53
2019-03-19T02:52:42.374Z,2.57
2019-03-19T02:55:10.437Z,2.13
2019-03-19T02:57:38.504Z,3.00
2019-03-19T03:00:07.018Z,2.80
2019-03-19T03:02:35.264Z,2.47
2019-03-19T03:05:04.029Z,1.97
2019-03-19T03:07:31.900Z,6.07
2019-03-19T03:09:59.754Z,1.77
2019-03-19T03:12:27.595Z,2.13
2019-03-19T03:14:55.530Z,2.90
2019-03-19T03:17:23.673Z,2.10
2019-03-19T03:19:51.716Z,3.03
2019-03-19T03:22:19.752Z,2.37
2019-03-19T03:24:47.889Z,2.37
2019-03-19T03:27:15.949Z,3.50
2019-03-19T03:29:43.998Z,3.07
2019-03-19T03:32:12.096Z,2.27
2019-03-19T03:34:40.155Z,3.77
2019-03-19T03:37:08.173Z,1.87
2019-03-19T03:39:36.354Z,2.23
2019-03-19T03:42:04.405Z,2.23
2019-03-19T03:44:32.566Z,2.30
2019-03-19T03:47:00.528Z,4.43
2019-03-19T03:49:28.666Z,1.80
2019-03-19T03:51:56.752Z,2.10
2019-03-19T03:54:24.732Z,4.13
2019-03-19T03:57:01.809Z,2.33
2019-03-19T03:59:22.394Z,2.83
2019-03-19T04:01:50.565Z,2.03
2019-03-19T04:04:18.503Z,2.93
2019-03-19T04:06:46.707Z,2.27
2019-03-19T04:09:14.764Z,2.03
2019-03-19T04:11:42.675Z,2.73
2019-03-19T04:14:10.661Z,2.23
2019-03-19T04:16:38.692Z,2.30
2019-03-19T04:19:06.639Z,1.30
2019-03-19T04:21:34.795Z,1.53
2019-03-19T04:24:02.925Z,1.87
2019-03-19T04:26:30.876Z,1.53
2019-03-19T04:28:58.941Z,1.90
2019-03-19T04:31:27.040Z,1.70
2019-03-19T04:33:55.194Z,2.07
2019-03-19T04:36:23.145Z,1.87
2019-03-19T04:38:52.132Z,1.13
2019-03-19T04:41:19.906Z,1.10
2019-03-19T04:43:48.001Z,1.80
2019-03-19T04:46:16.049Z,1.90
2019-03-19T04:48:44.156Z,2.13
2019-03-19T04:51:12.192Z,2.23
2019-03-19T04:53:40.245Z,1.77
2019-03-19T04:56:08.325Z,2.07
2019-03-19T04:58:36.084Z,4.13
2019-03-19T05:01:04.120Z,2.97
2019-03-19T05:03:32.288Z,1.40
2019-03-19T05:06:00.341Z,3.30
2019-03-19T05:08:28.403Z,2.80
2019-03-19T05:10:56.456Z,1.03
2019-03-19T05:13:24.567Z,2.80
2019-03-19T05:15:52.624Z,0.90
2019-03-19T05:18:20.684Z,0.60
2019-03-19T05:20:48.520Z,1.77
2019-03-19T05:23:16.624Z,3.77
2019-03-19T05:25:44.460Z,1.13
2019-03-19T05:28:12.633Z,2.43
2019-03-19T05:30:40.455Z,1.30
2019-03-19T05:33:08.504Z,2.50
2019-03-19T05:35:36.616Z,1.63
2019-03-19T05:38:04.468Z,2.27
2019-03-19T05:40:51.864Z,1.27
2019-03-19T05:43:19.811Z,1.00
2019-03-19T05:45:47.949Z,2.53
2019-03-19T05:48:15.688Z,1.40
2019-03-19T05:50:43.723Z,1.77
2019-03-19T05:53:11.628Z,1.07
2019-03-19T05:55:39.600Z,1.70
2019-03-19T05:58:07.344Z,1.17
2019-03-19T06:00:35.915Z,1.60
2019-03-19T06:03:03.776Z,1.37
2019-03-19T06:05:31.629Z,2.97
2019-03-19T06:07:59.598Z,0.87
2019-03-19T06:10:27.484Z,1.57
2019-03-19T06:12:55.672Z,1.63
2019-03-19T06:15:23.528Z,1.13
2019-03-19T06:17:51.594Z,1.60
2019-03-19T06:20:19.708Z,2.00
2019-03-19T06:22:47.567Z,2.43
2019-03-19T06:25:15.544Z,3.07
2019-03-19T06:27:43.560Z,3.87
2019-03-19T06:30:13.104Z,1.63
2019-03-19T06:32:40.983Z,1.93
2019-03-19T06:35:09.143Z,1.40
2019-03-19T06:37:37.118Z,2.57
2019-03-19T06:40:05.687Z,1.20
2019-03-19T06:42:33.564Z,1.10
2019-03-19T06:45:01.440Z,2.57
2019-03-19T06:47:29.412Z,2.30
2019-03-19T06:49:57.472Z,1.60
2019-03-19T06:52:25.544Z,2.33
2019-03-19T06:54:53.680Z,2.30
2019-03-19T06:57:21.680Z,2.37
2019-03-19T06:59:49.735Z,1.53
2019-03-19T07:02:17.784Z,1.57
2019-03-19T07:04:45.840Z,2.90
2019-03-19T07:07:13.919Z,1.10
2019-03-19T07:09:42.020Z,1.33
2019-03-19T07:12:10.168Z,2.43
2019-03-19T07:14:38.136Z,1.13
2019-03-19T07:17:06.175Z,3.07
2019-03-19T07:19:34.280Z,1.97
2019-03-19T07:22:02.120Z,3.30
2019-03-19T07:24:30.096Z,1.47
2019-03-19T07:26:58.146Z,2.60
2019-03-19T07:29:26.300Z,1.00
2019-03-19T07:31:54.376Z,3.17
2019-03-19T07:34:22.260Z,2.03
2019-03-19T07:36:50.501Z,2.30
2019-03-19T07:39:18.560Z,2.00
2019-03-19T07:41:46.692Z,3.63
2019-03-19T07:44:14.781Z,1.70
2019-03-19T07:46:42.553Z,4.20
2019-03-19T07:49:10.518Z,2.40
2019-03-19T07:51:38.575Z,1.03
2019-03-19T07:54:06.628Z,2.40
2019-03-19T07:56:34.488Z,2.13
2019-03-19T07:59:02.564Z,2.57
2019-03-19T08:01:30.749Z,2.87
2019-03-19T08:03:58.884Z,4.47
2019-03-19T08:06:26.848Z,2.87
2019-03-19T08:08:54.797Z,4.07
2019-03-19T08:11:22.667Z,2.50
2019-03-19T08:13:50.619Z,1.17
2019-03-19T08:16:27.089Z,4.07
2019-03-19T08:18:48.757Z,3.87
2019-03-19T08:21:16.601Z,2.17
2019-03-19T08:23:44.460Z,1.37
2019-03-19T08:26:12.312Z,3.10
2019-03-19T08:28:40.370Z,1.13
2019-03-19T08:31:08.470Z,3.60
2019-03-19T08:33:36.283Z,2.20
2019-03-19T08:36:09.246Z,2.37
2019-03-19T08:38:33.884Z,3.93
2019-03-19T08:41:01.880Z,2.03
2019-03-19T08:43:29.909Z,3.40
2019-03-19T08:45:57.955Z,1.53
2019-03-19T08:48:26.239Z,2.47
2019-03-19T08:50:54.496Z,1.10
2019-03-19T08:53:22.544Z,2.87
2019-03-19T08:55:50.603Z,1.33
2019-03-19T08:58:18.651Z,3.80
2019-03-19T09:00:46.508Z,2.97
2019-03-19T09:03:14.480Z,2.43
2019-03-19T09:05:42.551Z,2.07
2019-03-19T09:08:10.343Z,4.00
2019-03-19T09:10:38.196Z,3.77
2019-03-19T09:13:06.372Z,3.30
2019-03-19T09:15:34.368Z,3.93
2019-03-19T09:18:02.260Z,1.67
2019-03-19T09:20:30.233Z,3.27
2019-03-19T09:22:58.337Z,1.83
2019-03-19T09:25:26.304Z,3.23
2019-03-19T09:27:54.392Z,2.23
2019-03-19T09:30:22.556Z,5.07
2019-03-19T09:32:50.675Z,2.03
2019-03-19T09:35:18.640Z,2.40
2019-03-19T09:37:57.753Z,3.13
2019-03-19T09:40:16.655Z,3.97
2019-03-19T09:42:44.848Z,1.27
2019-03-19T09:45:13.577Z,1.43
2019-03-19T09:47:41.752Z,1.97
2019-03-19T09:50:10.420Z,1.50
2019-03-19T09:52:38.422Z,3.60
2019-03-19T09:55:07.161Z,2.07
2019-03-19T09:57:35.263Z,2.50
2019-03-19T10:00:04.731Z,2.37
2019-03-19T10:02:32.636Z,2.37
2019-03-19T10:05:00.789Z,1.50
2019-03-19T10:07:31.863Z,1.23
2019-03-19T10:09:59.927Z,0.93
2019-03-19T10:12:27.871Z,1.57
2019-03-19T10:14:55.761Z,1.90
2019-03-19T10:17:23.846Z,2.03
2019-03-19T10:19:51.847Z,0.90
2019-03-19T10:22:19.944Z,2.23
2019-03-19T10:24:48.006Z,2.17
2019-03-19T10:27:16.155Z,1.80
2019-03-19T10:29:44.163Z,1.60
2019-03-19T10:32:12.031Z,1.70
2019-03-19T10:34:40.048Z,1.20
2019-03-19T10:37:08.069Z,1.87
2019-03-19T10:39:36.197Z,1.80
2019-03-19T10:42:04.169Z,2.83
2019-03-19T10:44:32.310Z,3.60
2019-03-19T10:47:00.407Z,3.17
2019-03-19T10:49:28.348Z,1.30
2019-03-19T10:51:56.235Z,2.80
2019-03-19T10:54:24.135Z,1.80
2019-03-19T10:56:52.362Z,2.23
2019-03-19T10:59:20.328Z,1.73
2019-03-19T11:01:48.572Z,1.80
2019-03-19T11:04:16.663Z,1.50
2019-03-19T11:06:44.636Z,1.73
2019-03-19T11:09:12.590Z,2.60
2019-03-19T11:11:40.807Z,2.33
2019-03-19T11:14:08.753Z,2.67
2019-03-19T11:16:36.845Z,1.60
2019-03-19T11:19:04.955Z,1.50
2019-03-19T11:21:33.044Z,1.30
2019-03-19T11:24:01.294Z,1.30
2019-03-19T11:26:29.188Z,1.50
2019-03-19T11:28:57.157Z,2.03
2019-03-19T11:31:25.332Z,0.90
2019-03-19T11:33:53.404Z,2.00
2019-03-19T11:36:21.398Z,2.33
2019-03-19T11:38:49.450Z,2.33
2019-03-19T11:41:17.524Z,1.67
2019-03-19T11:43:45.652Z,1.00
2019-03-19T11:46:13.742Z,1.10
2019-03-19T11:48:41.890Z,1.93
2019-03-19T11:51:09.850Z,1.77
2019-03-19T11:53:37.967Z,3.80
2019-03-19T11:56:06.021Z,1.47
2019-03-19T11:58:34.090Z,1.87
2019-03-19T12:01:02.368Z,1.40
2019-03-19T12:03:30.582Z,1.23
2019-03-19T12:05:58.618Z,3.13
2019-03-19T12:08:29.580Z,2.00
2019-03-19T12:10:57.429Z,4.10
2019-03-19T12:13:25.327Z,2.80
2019-03-19T12:15:53.119Z,1.73
2019-03-19T12:18:21.116Z,1.20
2019-03-19T12:20:48.999Z,1.50
2019-03-19T12:23:16.961Z,1.87
2019-03-19T12:25:45.099Z,1.27
2019-03-19T12:28:13.055Z,1.23
2019-03-19T12:30:40.824Z,1.80
2019-03-19T12:33:09.204Z,1.00
2019-03-19T12:35:37.323Z,3.10
2019-03-19T12:38:05.460Z,1.10
2019-03-19T12:40:37.146Z,2.20
2019-03-19T12:43:03.868Z,1.90
2019-03-19T12:45:35.057Z,2.27
2019-03-19T12:48:02.975Z,3.73
2019-03-19T12:50:31.278Z,2.30
2019-03-19T12:52:59.156Z,1.30
2019-03-19T12:55:27.339Z,4.10
2019-03-19T12:57:55.632Z,2.00
2019-03-19T13:00:33.268Z,2.97
2019-03-19T13:02:53.470Z,2.97
2019-03-19T13:05:22.666Z,1.57
2019-03-19T13:07:50.783Z,2.10
2019-03-19T13:10:18.831Z,2.43
2019-03-19T13:12:46.755Z,2.10
2019-03-19T13:15:15.227Z,3.60
2019-03-19T13:17:43.529Z,1.27
2019-03-19T13:20:11.987Z,2.20
2019-03-19T13:22:39.781Z,1.10
2019-03-19T13:25:08.884Z,1.50
2019-03-19T13:27:36.902Z,2.23
2019-03-19T13:30:05.576Z,1.47
2019-03-19T13:32:33.698Z,4.23
2019-03-19T13:35:01.840Z,2.37
2019-03-19T13:37:29.693Z,6.20
2019-03-19T13:39:57.678Z,2.60
2019-03-19T13:42:25.596Z,2.40
2019-03-19T13:44:53.561Z,2.23
2019-03-19T13:47:21.683Z,2.87
2019-03-19T13:49:49.664Z,2.10
2019-03-19T13:52:17.700Z,1.50
2019-03-19T13:54:45.652Z,1.63
2019-03-19T13:57:13.625Z,1.53
2019-03-19T13:59:41.688Z,4.13
2019-03-19T14:02:09.859Z,1.37
2019-03-19T14:04:37.877Z,3.13
2019-03-19T14:07:05.872Z,4.33
2019-03-19T14:09:33.798Z,3.10
2019-03-19T14:12:02.000Z,1.83
2019-03-19T14:14:30.106Z,2.87
2019-03-19T14:16:58.161Z,2.10
2019-03-19T14:19:26.129Z,1.43
2019-03-19T14:21:54.291Z,1.47
2019-03-19T14:24:22.306Z,1.60
2019-03-19T14:26:50.567Z,3.13
2019-03-19T14:29:18.400Z,3.43
2019-03-19T14:31:46.494Z,2.20
2019-03-19T14:34:15.607Z,1.30
2019-03-19T14:36:43.568Z,2.07
2019-03-19T14:39:13.586Z,3.73
2019-03-19T14:41:41.561Z,2.17
2019-03-19T14:44:09.522Z,1.37
2019-03-19T14:46:37.400Z,3.20
2019-03-19T14:49:05.400Z,2.33
2019-03-19T14:51:33.304Z,3.20
2019-03-19T14:54:01.327Z,1.67
2019-03-19T14:56:29.306Z,2.97
2019-03-19T14:58:57.531Z,2.87
2019-03-19T15:01:25.540Z,2.77
2019-03-19T15:03:53.691Z,2.20
2019-03-19T15:06:21.608Z,1.80
2019-03-19T15:08:49.693Z,4.27
2019-03-19T15:11:17.856Z,3.77
2019-03-19T15:13:45.878Z,2.03
2019-03-19T15:16:13.968Z,1.77
2019-03-19T15:18:41.936Z,2.33
2019-03-19T15:21:10.008Z,1.73
2019-03-19T15:23:39.476Z,2.33
2019-03-19T15:26:07.648Z,1.20
2019-03-19T15:28:35.730Z,3.60
2019-03-19T15:31:03.798Z,3.17
2019-03-19T15:33:31.691Z,1.80
2019-03-19T15:35:59.663Z,2.10
2019-03-19T15:38:27.779Z,1.30
2019-03-19T15:40:55.895Z,1.40
2019-03-19T15:43:23.888Z,2.10
2019-03-19T15:45:53.836Z,1.97
2019-03-19T15:48:21.826Z,1.40
2019-03-19T15:50:49.700Z,1.30
2019-03-19T15:53:17.746Z,3.93
2019-03-19T15:55:45.784Z,3.37
2019-03-19T15:58:13.853Z,1.40
2019-03-19T16:00:41.921Z,2.60
2019-03-19T16:03:09.998Z,3.07
2019-03-19T16:05:38.323Z,2.03
2019-03-19T16:08:07.800Z,1.40
2019-03-19T16:10:35.767Z,4.93
2019-03-19T16:13:03.614Z,1.73
2019-03-19T16:15:31.996Z,2.90
2019-03-19T16:18:00.285Z,2.30
2019-03-19T16:20:28.240Z,1.57
2019-03-19T16:22:56.408Z,2.10
2019-03-19T16:25:24.480Z,1.77
2019-03-19T16:27:52.582Z,2.00
2019-03-19T16:30:20.530Z,2.17
2019-03-19T16:32:48.641Z,2.90
2019-03-19T16:35:16.792Z,2.53
2019-03-19T16:37:44.792Z,3.80
2019-03-19T16:40:15.320Z,1.60
2019-03-19T16:42:43.507Z,1.40
2019-03-19T16:45:11.850Z,4.00
2019-03-19T16:47:39.841Z,1.80
2019-03-19T16:50:08.607Z,1.73
2019-03-19T16:52:36.580Z,3.30
2019-03-19T16:55:04.587Z,1.70
2019-03-19T16:57:32.572Z,3.93
2019-03-19T17:00:00.544Z,5.17
2019-03-19T17:02:28.539Z,4.90
2019-03-19T17:04:56.487Z,2.37
2019-03-19T17:07:24.459Z,2.70
2019-03-19T17:09:52.620Z,4.70
2019-03-19T17:12:21.596Z,2.00
2019-03-19T17:14:49.670Z,2.10
2019-03-19T17:17:17.739Z,2.13
2019-03-19T17:19:45.776Z,3.90
2019-03-19T17:22:13.881Z,4.40
2019-03-19T17:24:41.657Z,3.03
2019-03-19T17:27:09.612Z,3.13
2019-03-19T17:29:37.736Z,2.03
2019-03-19T17:32:12.952Z,2.57
2019-03-19T17:34:35.363Z,1.77
2019-03-19T17:37:03.559Z,2.90
2019-03-19T17:39:31.555Z,5.30
2019-03-19T17:41:59.706Z,3.30
2019-03-19T17:44:27.772Z,2.50
2019-03-19T17:46:55.754Z,4.17
2019-03-19T17:49:23.868Z,2.40
2019-03-19T17:51:51.735Z,4.90
2019-03-19T17:54:19.721Z,5.43
2019-03-19T17:56:50.763Z,4.57
2019-03-19T17:59:18.664Z,2.37
2019-03-19T18:01:46.830Z,2.57
2019-03-19T18:04:14.973Z,4.57
2019-03-19T18:06:43.278Z,3.37
2019-03-19T18:09:11.338Z,2.33
2019-03-19T18:11:39.578Z,4.60
2019-03-19T18:14:07.677Z,2.70
2019-03-19T18:16:35.732Z,3.37
2019-03-19T18:19:03.739Z,4.87
2019-03-19T18:21:31.611Z,4.43
2019-03-19T18:24:00.157Z,5.53
2019-03-19T18:26:28.256Z,4.27
2019-03-19T18:28:56.065Z,6.60
2019-03-19T18:31:24.075Z,13.07
2019-03-19T18:33:52.042Z,9.10
2019-03-19T18:36:20.163Z,9.63
2019-03-19T18:38:48.228Z,8.37
2019-03-19T18:41:16.296Z,6.70
2019-03-19T18:43:44.535Z,8.43
2019-03-19T18:46:12.496Z,7.23
2019-03-19T18:48:40.524Z,6.50
2019-03-19T18:51:08.596Z,7.63
2019-03-19T18:53:36.593Z,5.23
2019-03-19T18:56:04.995Z,5.60
2019-03-19T18:58:32.873Z,5.87
2019-03-19T19:01:01.011Z,5.57
2019-03-19T19:03:28.956Z,8.70
2019-03-19T19:05:56.819Z,9.73
2019-03-19T19:08:24.785Z,5.37
2019-03-19T19:10:52.648Z,6.23
2019-03-19T19:13:20.755Z,6.93
2019-03-19T19:15:48.780Z,11.10
2019-03-19T19:18:16.880Z,17.63
2019-03-19T19:20:44.823Z,13.47
2019-03-19T19:23:12.613Z,15.27
2019-03-19T19:25:40.742Z,15.60
2019-03-19T19:28:08.660Z,21.93
2019-03-19T19:30:36.553Z,16.23
2019-03-19T19:33:04.667Z,17.70
2019-03-19T19:35:32.633Z,16.70
2019-03-19T19:38:03.118Z,19.90
2019-03-19T19:40:30.314Z,13.97
2019-03-19T19:42:58.304Z,22.10
2019-03-19T19:45:26.470Z,18.97
2019-03-19T19:47:54.428Z,17.47
2019-03-19T19:50:22.968Z,20.13
2019-03-19T19:52:51.091Z,15.53
2019-03-19T19:55:19.123Z,18.10
2019-03-19T19:57:47.676Z,18.70
2019-03-19T20:00:15.702Z,21.43
2019-03-19T20:02:47.984Z,15.13
2019-03-19T20:05:15.855Z,15.77
2019-03-19T20:07:43.824Z,15.47
2019-03-19T20:10:12.297Z,16.20
2019-03-19T20:12:40.651Z,15.77
2019-03-19T20:15:17.222Z,13.50
2019-03-19T20:17:45.380Z,15.57
2019-03-19T20:20:13.990Z,17.03
2019-03-19T20:22:42.892Z,13.90
2019-03-19T20:25:11.772Z,13.57
2019-03-19T20:27:41.247Z,9.13
2019-03-19T20:30:17.368Z,14.33
2019-03-19T20:32:46.850Z,13.10
2019-03-19T20:35:16.355Z,10.57
2019-03-19T20:37:45.892Z,15.40
2019-03-19T20:40:15.968Z,17.03
2019-03-19T20:42:47.227Z,12.13
2019-03-19T20:45:17.066Z,13.10
2019-03-19T20:47:46.612Z,13.80
2019-03-19T20:50:17.328Z,12.73
2019-03-19T20:52:46.859Z,10.57
2019-03-19T20:55:16.430Z,10.47
2019-03-19T20:57:45.925Z,12.83
2019-03-19T21:00:15.626Z,11.30
2019-03-19T21:02:45.118Z,12.07
2019-03-19T21:05:17.568Z,9.53
2019-03-19T21:07:47.052Z,10.53
2019-03-19T21:10:16.928Z,12.50
2019-03-19T21:12:46.460Z,12.67
2019-03-19T21:15:22.782Z,12.20
2019-03-19T21:17:55.111Z,9.93
2019-03-19T21:20:24.596Z,14.13
2019-03-19T21:22:54.125Z,11.60
2019-03-19T21:25:23.581Z,11.10
2019-03-19T21:27:53.274Z,9.97
2019-03-19T21:30:22.766Z,13.10
2019-03-19T21:32:52.275Z,14.33
2019-03-19T21:35:21.835Z,10.70
2019-03-19T21:37:51.351Z,8.97
2019-03-19T21:40:20.911Z,10.23
2019-03-19T21:42:50.404Z,11.77
2019-03-19T21:45:19.899Z,9.77
2019-03-19T21:47:49.514Z,8.07
2019-03-19T21:50:19.115Z,6.33
2019-03-19T21:52:48.627Z,7.53
2019-03-19T21:55:18.015Z,6.40
2019-03-19T21:57:47.415Z,8.97
2019-03-19T22:00:16.801Z,7.90
2019-03-19T22:02:46.477Z,7.60
2019-03-19T22:05:16.305Z,9.77
2019-03-19T22:07:45.900Z,6.73
2019-03-19T22:10:15.609Z,9.83
2019-03-19T22:12:45.565Z,7.00
2019-03-19T22:15:15.613Z,10.53
2019-03-19T22:17:48.018Z,8.20
2019-03-19T22:20:17.474Z,5.53
2019-03-19T22:22:46.940Z,8.93
2019-03-19T22:25:16.490Z,5.27
2019-03-19T22:27:46.143Z,5.40
2019-03-19T22:30:15.719Z,5.50
2019-03-19T22:32:45.199Z,8.07
2019-03-19T22:35:14.737Z,5.97
2019-03-19T22:37:44.206Z,6.80
2019-03-19T22:40:13.807Z,8.00
2019-03-19T22:42:43.569Z,5.40
2019-03-19T22:45:13.244Z,6.37
2019-03-19T22:47:42.735Z,4.93
2019-03-19T22:50:12.548Z,6.10
2019-03-19T22:52:42.126Z,7.33
2019-03-19T22:55:11.735Z,5.37
2019-03-19T22:57:41.227Z,4.77
2019-03-19T23:00:15.615Z,6.20
2019-03-19T23:02:45.186Z,6.03
2019-03-19T23:05:14.771Z,7.00
2019-03-19T23:07:44.269Z,5.37
2019-03-19T23:10:13.741Z,5.00
2019-03-19T23:12:43.323Z,4.60
2019-03-19T23:15:12.870Z,5.13
2019-03-19T23:17:42.292Z,3.80
2019-03-19T23:20:12.392Z,5.27
2019-03-19T23:22:41.935Z,4.30
2019-03-19T23:25:11.545Z,5.00
2019-03-19T23:27:41.062Z,8.77
2019-03-19T23:30:10.831Z,5.27
2019-03-19T23:32:40.291Z,4.40
2019-03-19T23:35:09.752Z,7.20
2019-03-19T23:37:58.632Z,8.77
2019-03-19T23:40:28.084Z,4.57
2019-03-19T23:42:57.439Z,4.33
2019-03-19T23:45:26.896Z,5.57
2019-03-19T23:47:56.243Z,4.90
2019-03-19T23:50:25.698Z,6.03
2019-03-19T23:52:55.148Z,4.67
2019-03-19T23:55:24.503Z,6.43
2019-03-19T23:57:53.852Z,4.37
